TKPKTNCM

Guest
Details From TKPK - St. Kitts/Bradshaw Intl
To TNCM - St Maarten - Princess Juliana Intl
Flight Number -
Tags generated
Created
Modified
Stats Distance 49 nm / 91 km
Max Altitude 4,000 ft / 1,219 m
Waypoints 3
Social Downloads 0
Likes 0
Share VATSIM

Download

Looking for another format? Having issues loading an existing format? Contact us
Advertisement - Login to hide

Notes

Basic altitude profile: - Ascent Rate: 18000ft/min - Ascent Speed: 250kts - Cruise Altitude: 18000ft - Cruise Speed: 420kts - Descent Rate: 4000ft/min - Descent Speed: 250kts Options: - Use NATs: yes - Use PACOTS: yes - Use low airways: yes - Use high airways: yes

Route

TKPK TIKAL TNCM

ID Type Via Altitude Latitude Longitude Leg Dist Tot Dist Heading (true) Name
O TKPK APT - 0 ft / 0 m 17.31119˚ -62.71867˚ - 0 nm - St. Kitts/Bradshaw Intl
TIKAL FIX - 4,000 ft / 1,219 m 17.47381˚ -62.81800˚ 11 nm 11 nm 330° / 330° -
O TNCM APT - 0 ft / 0 m 18.04089˚ -63.10897˚ 37 nm 49 nm 334° / 334° St Maarten - Princess Juliana Intl

Altitude Profile

Advertisement - Login to hide

TKPK

Details ICAO TKPK (SKB)
Name St. Kitts/Bradshaw Intl
Region Saint Kitts and Nevis
Timezone America/St_Kitts (UTC-4.0)
Stats Elevation 169 ft / 52 m (AMSL)
Location 17.311200° -62.718700°
Runways 1
Magnetic Variation 14.470° W

METAR

Not found

TAF

TAF TKPK 152339Z 1600/1624 04011KT P6SM VCSH FEW015 FM161200 08012KT P6SM -RA SCT022 BKN050 FM162100 08010KT P6SM FEW020

Decode

Departure Runways

ID Width Length Bearing (true/mag) Surface Threshold Overrun Markings Lighting
07 148 ft / 45 m 7,620 ft / 2,323 m 56.95° / 71.42° ASPHALT 200 ft / 61 m 0 ft / 0 m APP EDGE THRESHOLD
25 148 ft / 45 m 7,620 ft / 2,323 m 236.95° / 251.42° ASPHALT 0 ft / 0 m 0 ft / 0 m APP EDGE THRESHOLD REIL-OMNI

TNCM

Details ICAO TNCM (SXM)
Name Princess Juliana Int'l
Region Caribbean Netherlands, Aruba, Curaçao, Sint Maarten
Timezone Unknown (UTC+0.0)
Stats Elevation 12 ft / 4 m (AMSL)
Location 18.040900° -63.108900°
Runways 1
Magnetic Variation 14.343° W

METAR

TNCM 160400Z 08013KT 040V110 9999 FEW020 28/23 Q1018 RMK A3007

Decode

TAF

TNCM 152339Z 1600/1624 08011KT P6SM -SHRA FEW016 FM160800 11012KT P6SM -SHRA SCT022 BKN050 FM162100 08009KT P6SM FEW020

Decode

Destination Runways

ID Width Length Bearing (true/mag) Surface Threshold Overrun Markings Lighting
10 148 ft / 45 m 7,553 ft / 2,302 m 81.44° / 95.78° ASPHALT 331 ft / 101 m 164 ft / 50 m PREC-APP EDGE THRESHOLD REIL-OMNI
28 148 ft / 45 m 7,553 ft / 2,302 m 261.45° / 275.79° ASPHALT 0 ft / 0 m 200 ft / 61 m APP EDGE THRESHOLD

Popular Alternatives